createdAt,value
2018-08-18T00:02:03.581Z,99403.00
2018-08-18T00:04:34.886Z,99403.00
2018-08-18T00:07:05.884Z,99397.00
2018-08-18T00:09:37.047Z,99399.00
2018-08-18T00:12:11.638Z,99398.00
2018-08-18T00:14:43.455Z,99398.00
2018-08-18T00:17:14.349Z,99402.00
2018-08-18T00:19:45.487Z,99398.00
2018-08-18T00:22:17.177Z,99404.00
2018-08-18T00:24:53.256Z,99402.00
2018-08-18T00:27:24.874Z,99402.00
2018-08-18T00:30:00.721Z,99408.00
2018-08-18T00:32:31.633Z,99398.00
2018-08-18T00:35:02.326Z,99401.00
2018-08-18T00:37:33.060Z,99398.00
2018-08-18T00:40:04.146Z,99389.00
2018-08-18T00:42:35.183Z,99389.00
2018-08-18T00:45:06.694Z,99394.00
2018-08-18T00:47:38.649Z,99393.00
2018-08-18T00:50:09.711Z,99395.00
2018-08-18T00:52:40.541Z,99393.00
2018-08-18T00:55:11.725Z,99395.00
2018-08-18T00:57:42.577Z,99392.00
2018-08-18T01:00:13.414Z,99389.00
2018-08-18T01:02:44.277Z,99393.00
2018-08-18T01:05:15.198Z,99390.00
2018-08-18T01:07:45.963Z,99387.00
2018-08-18T01:10:17.273Z,99386.00
2018-08-18T01:12:47.858Z,99388.00
2018-08-18T01:15:23.908Z,99387.00
2018-08-18T01:17:54.629Z,99384.00
2018-08-18T01:20:25.489Z,99383.00
2018-08-18T01:23:03.280Z,99387.00
2018-08-18T01:25:34.184Z,99392.00
2018-08-18T01:28:05.160Z,99395.00
2018-08-18T01:30:36.476Z,99397.00
2018-08-18T01:33:07.484Z,99393.00
2018-08-18T01:35:38.417Z,99391.00
2018-08-18T01:38:09.186Z,99392.00
2018-08-18T01:40:39.950Z,99398.00
2018-08-18T01:43:10.544Z,99400.00
2018-08-18T01:45:41.558Z,99392.00
2018-08-18T01:48:12.479Z,99390.00
2018-08-18T01:50:43.503Z,99393.00
2018-08-18T01:53:14.380Z,99398.00
2018-08-18T01:55:44.873Z,99401.00
2018-08-18T01:58:15.530Z,99400.00
2018-08-18T02:00:46.459Z,99396.00
2018-08-18T02:03:17.165Z,99402.00
2018-08-18T02:05:48.345Z,99404.00
2018-08-18T02:08:19.177Z,99400.00
2018-08-18T02:10:49.744Z,99400.00
2018-08-18T02:13:19.651Z,99401.00
2018-08-18T02:15:50.927Z,99400.00
2018-08-18T02:18:21.719Z,99402.00
2018-08-18T02:20:52.434Z,99410.00
2018-08-18T02:23:23.431Z,99409.00
2018-08-18T02:25:54.444Z,99412.00
2018-08-18T02:28:30.285Z,99412.00
2018-08-18T02:31:01.260Z,99416.00
2018-08-18T02:33:32.662Z,99413.00
2018-08-18T02:36:03.542Z,99404.00
2018-08-18T02:38:34.982Z,99407.00
2018-08-18T02:41:06.085Z,99405.00
2018-08-18T02:43:37.218Z,99399.00
2018-08-18T02:46:19.601Z,99397.00
2018-08-18T02:48:50.630Z,99403.00
2018-08-18T02:51:21.515Z,99401.00
2018-08-18T02:53:52.532Z,99406.00
2018-08-18T02:56:28.666Z,99408.00
2018-08-18T02:59:04.139Z,99407.00
2018-08-18T03:01:35.691Z,99405.00
2018-08-18T03:04:10.520Z,99408.00
2018-08-18T03:06:41.720Z,99408.00
2018-08-18T03:09:13.077Z,99411.00
2018-08-18T03:11:44.430Z,99425.00
2018-08-18T03:14:14.795Z,99426.00
2018-08-18T03:16:46.094Z,99423.00
2018-08-18T03:19:16.937Z,99431.00
2018-08-18T03:21:47.817Z,99432.00
2018-08-18T03:24:20.302Z,99429.00
2018-08-18T03:26:53.398Z,99429.00
2018-08-18T03:29:27.356Z,99431.00
2018-08-18T03:31:58.075Z,99433.00
2018-08-18T03:34:28.796Z,99432.00
2018-08-18T03:36:59.499Z,99429.00
2018-08-18T03:39:35.450Z,99428.00
2018-08-18T03:42:06.221Z,99440.00
2018-08-18T03:44:41.452Z,99451.00
2018-08-18T03:47:12.424Z,99451.00
2018-08-18T03:49:43.321Z,99457.00
2018-08-18T03:52:14.180Z,99451.00
2018-08-18T03:54:45.324Z,99459.00
2018-08-18T03:57:16.839Z,99465.00
2018-08-18T03:59:47.523Z,99471.00
2018-08-18T04:02:18.759Z,99479.00
2018-08-18T04:04:50.626Z,99484.00
2018-08-18T04:07:21.937Z,99487.00
2018-08-18T04:09:52.906Z,99484.00
2018-08-18T04:12:23.637Z,99481.00
2018-08-18T04:14:54.480Z,99484.00
2018-08-18T04:17:32.002Z,99484.00
2018-08-18T04:20:02.879Z,99488.00
2018-08-18T04:22:34.095Z,99490.00
2018-08-18T04:25:05.406Z,99486.00
2018-08-18T04:27:40.190Z,99485.00
2018-08-18T04:30:13.951Z,99489.00
2018-08-18T04:32:57.689Z,99490.00
2018-08-18T04:35:29.586Z,99486.00
2018-08-18T04:38:01.232Z,99489.00
2018-08-18T04:40:32.452Z,99496.00
2018-08-18T04:43:03.997Z,99498.00
2018-08-18T04:45:34.555Z,99498.00
2018-08-18T04:48:05.762Z,99494.00
2018-08-18T04:50:37.079Z,99493.00
2018-08-18T04:53:08.496Z,99495.00
2018-08-18T04:55:38.420Z,99498.00
2018-08-18T04:58:09.340Z,99499.00
2018-08-18T05:00:40.353Z,99494.00
2018-08-18T05:03:12.064Z,99488.00
2018-08-18T05:05:43.009Z,99487.00
2018-08-18T05:08:13.973Z,99491.00
2018-08-18T05:10:44.852Z,99490.00
2018-08-18T05:13:16.461Z,99492.00
2018-08-18T05:15:47.228Z,99493.00
2018-08-18T05:18:18.009Z,99495.00
2018-08-18T05:20:49.468Z,99495.00
2018-08-18T05:23:24.014Z,99502.00
2018-08-18T05:25:54.812Z,99502.00
2018-08-18T05:28:26.026Z,99499.00
2018-08-18T05:30:56.608Z,99499.00
2018-08-18T05:33:27.473Z,99501.00
2018-08-18T05:35:58.185Z,99500.00
2018-08-18T05:38:29.480Z,99505.00
2018-08-18T05:41:00.349Z,99506.00
2018-08-18T05:43:31.193Z,99505.00
2018-08-18T05:46:03.126Z,99504.00
2018-08-18T05:48:34.375Z,99504.00
2018-08-18T05:51:05.248Z,99505.00
2018-08-18T05:53:36.595Z,99506.00
2018-08-18T05:56:07.391Z,99506.00
2018-08-18T05:58:52.718Z,99505.00
2018-08-18T06:01:32.258Z,99506.00
2018-08-18T06:04:13.724Z,99503.00
2018-08-18T06:06:45.498Z,99508.00
2018-08-18T06:09:20.782Z,99502.00
2018-08-18T06:11:51.734Z,99500.00
2018-08-18T06:14:22.542Z,99508.00
2018-08-18T06:16:53.628Z,99509.00
2018-08-18T06:19:24.410Z,99499.00
2018-08-18T06:21:55.153Z,99502.00
2018-08-18T06:24:26.055Z,99505.00
2018-08-18T06:26:56.817Z,99514.00
2018-08-18T06:29:27.849Z,99514.00
2018-08-18T06:32:01.603Z,99516.00
2018-08-18T06:34:34.363Z,99521.00
2018-08-18T06:37:05.845Z,99517.00
2018-08-18T06:40:00.716Z,99523.00
2018-08-18T06:42:46.670Z,99528.00
2018-08-18T06:45:20.993Z,99529.00
2018-08-18T06:47:51.892Z,99537.00
2018-08-18T06:50:28.272Z,99532.00
2018-08-18T06:52:59.586Z,99528.00
2018-08-18T06:55:31.016Z,99530.00
2018-08-18T06:58:01.682Z,99533.00
2018-08-18T07:00:32.705Z,99533.00
2018-08-18T07:03:03.460Z,99532.00
2018-08-18T07:05:34.498Z,99529.00
2018-08-18T07:08:05.960Z,99535.00
2018-08-18T07:10:37.870Z,99527.00
2018-08-18T07:13:10.219Z,99524.00
2018-08-18T07:15:43.129Z,99525.00
2018-08-18T07:18:14.941Z,99525.00
2018-08-18T07:20:45.811Z,99521.00
2018-08-18T07:23:16.596Z,99517.00
2018-08-18T07:25:52.518Z,99520.00
2018-08-18T07:28:23.467Z,99514.00
2018-08-18T07:30:53.674Z,99507.00
2018-08-18T07:33:23.905Z,99504.00
2018-08-18T07:35:54.701Z,99505.00
2018-08-18T07:38:25.914Z,99509.00
2018-08-18T07:40:57.581Z,99501.00
2018-08-18T07:43:32.230Z,99497.00
2018-08-18T07:46:05.968Z,99500.00
2018-08-18T07:48:36.893Z,99488.00
2018-08-18T07:51:07.800Z,99491.00
2018-08-18T07:53:38.602Z,99484.00
2018-08-18T07:56:09.548Z,99486.00
2018-08-18T07:58:40.684Z,99483.00
2018-08-18T08:01:10.455Z,99482.00
2018-08-18T08:03:40.306Z,99475.00
2018-08-18T08:06:11.387Z,99482.00
2018-08-18T08:08:48.064Z,99476.00
2018-08-18T08:11:19.060Z,99476.00
2018-08-18T08:13:50.257Z,99481.00
2018-08-18T08:16:21.179Z,99480.00
2018-08-18T08:18:52.716Z,99468.00
2018-08-18T08:21:23.656Z,99472.00
2018-08-18T08:23:54.617Z,99467.00
2018-08-18T08:26:25.340Z,99466.00
2018-08-18T08:28:56.452Z,99461.00
2018-08-18T08:31:26.861Z,99457.00
2018-08-18T08:33:57.598Z,99455.00
2018-08-18T08:36:28.627Z,99454.00
2018-08-18T08:39:00.946Z,99456.00
2018-08-18T08:41:33.147Z,99451.00
2018-08-18T08:44:03.974Z,99454.00
2018-08-18T08:46:34.919Z,99454.00
2018-08-18T08:49:05.275Z,99453.00
2018-08-18T08:51:36.570Z,99449.00
2018-08-18T08:54:07.456Z,99449.00
2018-08-18T08:56:40.175Z,99444.00
2018-08-18T08:59:11.003Z,99440.00
2018-08-18T09:01:41.929Z,99443.00
2018-08-18T09:04:12.032Z,99444.00
2018-08-18T09:06:59.341Z,99440.00
2018-08-18T09:09:30.303Z,99443.00
2018-08-18T09:12:01.228Z,99436.00
2018-08-18T09:14:32.188Z,99440.00
2018-08-18T09:17:03.007Z,99439.00
2018-08-18T09:19:33.732Z,99445.00
2018-08-18T09:22:05.124Z,99446.00
2018-08-18T09:24:35.905Z,99438.00
2018-08-18T09:27:06.791Z,99438.00
2018-08-18T09:29:45.387Z,99436.00
2018-08-18T09:32:17.193Z,99428.00
2018-08-18T09:34:51.437Z,99420.00
2018-08-18T09:37:22.362Z,99419.00
2018-08-18T09:39:53.441Z,99421.00
2018-08-18T09:42:24.527Z,99417.00
2018-08-18T09:44:55.271Z,99423.00
2018-08-18T09:47:25.398Z,99419.00
2018-08-18T09:49:56.189Z,99417.00
2018-08-18T09:52:26.877Z,99405.00
2018-08-18T09:54:57.794Z,99400.00
2018-08-18T09:57:28.898Z,99403.00
2018-08-18T09:59:58.796Z,99399.00
2018-08-18T10:02:29.898Z,99398.00
2018-08-18T10:05:00.526Z,99391.00
2018-08-18T10:07:31.264Z,99384.00
2018-08-18T10:10:02.036Z,99388.00
2018-08-18T10:12:32.970Z,99391.00
2018-08-18T10:15:04.594Z,99390.00
2018-08-18T10:17:35.899Z,99374.00
2018-08-18T10:20:06.912Z,99374.00
2018-08-18T10:22:37.854Z,99379.00
2018-08-18T10:25:08.236Z,99380.00
2018-08-18T10:27:39.147Z,99381.00
2018-08-18T10:30:10.785Z,99375.00
2018-08-18T10:32:45.661Z,99372.00
2018-08-18T10:35:21.687Z,99371.00
2018-08-18T10:37:52.466Z,99372.00
2018-08-18T10:40:23.331Z,99367.00
2018-08-18T10:42:54.064Z,99368.00
2018-08-18T10:45:23.801Z,99366.00
2018-08-18T10:47:54.512Z,99374.00
2018-08-18T10:51:33.437Z,99372.00
2018-08-18T10:54:03.538Z,99375.00
2018-08-18T10:56:33.464Z,99365.00
2018-08-18T10:59:19.340Z,99372.00
2018-08-18T11:01:59.929Z,99362.00
2018-08-18T11:04:32.453Z,99364.00
2018-08-18T11:07:02.445Z,99364.00
2018-08-18T11:09:33.313Z,99352.00
2018-08-18T11:12:04.002Z,99355.00
2018-08-18T11:14:33.890Z,99353.00
2018-08-18T11:17:03.620Z,99351.00
2018-08-18T11:19:33.351Z,99345.00
2018-08-18T11:22:13.971Z,99348.00
2018-08-18T11:24:43.730Z,99349.00
2018-08-18T11:27:13.475Z,99347.00
2018-08-18T11:29:43.283Z,99342.00
2018-08-18T11:32:13.338Z,99344.00
2018-08-18T11:34:43.412Z,99345.00
2018-08-18T11:37:13.393Z,99339.00
2018-08-18T11:39:43.492Z,99345.00
2018-08-18T11:42:13.664Z,99335.00
2018-08-18T11:44:43.493Z,99337.00
2018-08-18T11:47:13.452Z,99344.00
2018-08-18T11:49:43.323Z,99345.00
2018-08-18T11:52:13.484Z,99351.00
2018-08-18T11:54:43.694Z,99350.00
2018-08-18T11:57:13.810Z,99347.00
2018-08-18T11:59:44.026Z,99343.00
2018-08-18T12:02:14.138Z,99345.00
2018-08-18T12:04:44.364Z,99340.00
2018-08-18T12:07:14.401Z,99344.00
2018-08-18T12:09:49.571Z,99343.00
2018-08-18T12:12:19.329Z,99335.00
2018-08-18T12:14:49.160Z,99340.00
2018-08-18T12:17:18.979Z,99336.00
2018-08-18T12:19:50.931Z,99333.00
2018-08-18T12:22:20.697Z,99330.00
2018-08-18T12:24:55.004Z,99321.00
2018-08-18T12:27:24.963Z,99319.00
2018-08-18T12:29:55.148Z,99313.00
2018-08-18T12:32:28.984Z,99322.00
2018-08-18T12:34:58.983Z,99321.00
2018-08-18T12:37:29.312Z,99333.00
2018-08-18T12:39:59.312Z,99324.00
2018-08-18T12:42:29.758Z,99318.00
2018-08-18T12:44:59.752Z,99309.00
2018-08-18T12:47:29.641Z,99314.00
2018-08-18T12:49:59.651Z,99305.00
2018-08-18T12:52:42.415Z,99304.00
2018-08-18T12:55:12.562Z,99303.00
2018-08-18T12:57:42.739Z,99304.00
2018-08-18T13:00:13.011Z,99299.00
2018-08-18T13:02:44.943Z,99302.00
2018-08-18T13:05:14.991Z,99299.00
2018-08-18T13:07:45.948Z,99300.00
2018-08-18T13:10:18.614Z,99300.00
2018-08-18T13:12:48.754Z,99298.00
2018-08-18T13:15:18.928Z,99295.00
2018-08-18T13:17:48.700Z,99297.00
2018-08-18T13:20:22.471Z,99296.00
2018-08-18T13:22:52.337Z,99299.00
2018-08-18T13:25:22.708Z,99301.00
2018-08-18T13:27:54.476Z,99292.00
2018-08-18T13:30:25.638Z,99289.00
2018-08-18T13:32:57.907Z,99291.00
2018-08-18T13:35:27.854Z,99286.00
2018-08-18T13:37:57.654Z,99286.00
2018-08-18T13:40:28.798Z,99285.00
2018-08-18T13:42:58.481Z,99289.00
2018-08-18T13:45:37.570Z,99280.00
2018-08-18T13:48:08.228Z,99286.00
2018-08-18T13:50:38.145Z,99284.00
2018-08-18T13:53:08.274Z,99273.00
2018-08-18T13:55:40.546Z,99283.00
2018-08-18T13:58:12.161Z,99272.00
2018-08-18T14:00:42.105Z,99281.00
2018-08-18T14:03:28.588Z,99275.00
2018-08-18T14:05:58.506Z,99275.00
2018-08-18T14:08:28.285Z,99272.00
2018-08-18T14:10:58.076Z,99267.00
2018-08-18T14:13:29.511Z,99271.00
2018-08-18T14:15:59.390Z,99263.00
2018-08-18T14:18:29.583Z,99263.00
2018-08-18T14:21:03.703Z,99261.00
2018-08-18T14:23:33.521Z,99262.00
2018-08-18T14:26:03.323Z,99250.00
2018-08-18T14:28:33.267Z,99258.00
2018-08-18T14:31:03.062Z,99256.00
2018-08-18T14:33:32.875Z,99261.00
2018-08-18T14:36:07.831Z,99267.00
2018-08-18T14:38:37.627Z,99268.00
2018-08-18T14:41:08.150Z,99269.00
2018-08-18T14:43:39.262Z,99269.00
2018-08-18T14:46:10.779Z,99266.00
2018-08-18T14:48:40.675Z,99267.00
2018-08-18T14:51:10.719Z,99267.00
2018-08-18T14:53:42.148Z,99270.00
2018-08-18T14:56:13.216Z,99265.00
2018-08-18T14:58:46.281Z,99262.00
2018-08-18T15:01:16.520Z,99262.00
2018-08-18T15:03:46.377Z,99268.00
2018-08-18T15:06:16.212Z,99264.00
2018-08-18T15:08:46.112Z,99266.00
2018-08-18T15:11:15.968Z,99269.00
2018-08-18T15:13:45.711Z,99272.00
2018-08-18T15:16:15.460Z,99270.00
2018-08-18T15:18:45.284Z,99272.00
2018-08-18T15:21:15.092Z,99274.00
2018-08-18T15:23:44.922Z,99275.00
2018-08-18T15:26:14.844Z,99278.00
2018-08-18T15:28:44.652Z,99274.00
2018-08-18T15:31:14.540Z,99274.00
2018-08-18T15:33:44.506Z,99278.00
2018-08-18T15:36:26.312Z,99276.00
2018-08-18T15:38:56.213Z,99285.00
2018-08-18T15:41:26.243Z,99287.00
2018-08-18T15:43:56.161Z,99284.00
2018-08-18T15:46:26.076Z,99279.00
2018-08-18T15:48:55.965Z,99281.00
2018-08-18T15:51:25.893Z,99284.00
2018-08-18T15:53:59.074Z,99280.00
2018-08-18T15:56:30.028Z,99282.00
2018-08-18T15:59:00.704Z,99275.00
2018-08-18T16:01:31.834Z,99272.00
2018-08-18T16:04:02.909Z,99277.00
2018-08-18T16:06:32.804Z,99276.00
2018-08-18T16:09:02.719Z,99283.00
2018-08-18T16:11:32.553Z,99283.00
2018-08-18T16:14:02.344Z,99286.00
2018-08-18T16:16:32.145Z,99287.00
2018-08-18T16:19:07.033Z,99289.00
2018-08-18T16:21:36.773Z,99290.00
2018-08-18T16:24:06.815Z,99298.00
2018-08-18T16:26:36.565Z,99295.00
2018-08-18T16:29:06.342Z,99299.00
2018-08-18T16:31:36.192Z,99303.00
2018-08-18T16:34:06.006Z,99308.00
2018-08-18T16:36:40.851Z,99312.00
2018-08-18T16:39:10.625Z,99314.00
2018-08-18T16:41:40.353Z,99315.00
2018-08-18T16:44:10.246Z,99317.00
2018-08-18T16:46:40.051Z,99324.00
2018-08-18T16:49:09.971Z,99331.00
2018-08-18T16:51:40.076Z,99330.00
2018-08-18T16:54:20.982Z,99332.00
2018-08-18T16:56:51.590Z,99344.00
2018-08-18T16:59:22.179Z,99348.00
2018-08-18T17:01:53.109Z,99347.00
2018-08-18T17:04:31.794Z,99350.00
2018-08-18T17:07:05.143Z,99362.00
2018-08-18T17:09:39.102Z,99366.00
2018-08-18T17:12:23.327Z,99369.00
2018-08-18T17:14:54.605Z,99373.00
2018-08-18T17:17:26.318Z,99376.00
2018-08-18T17:19:57.032Z,99381.00
2018-08-18T17:22:27.702Z,99381.00
2018-08-18T17:24:58.620Z,99382.00
2018-08-18T17:27:30.824Z,99384.00
2018-08-18T17:30:03.033Z,99386.00
2018-08-18T17:32:32.929Z,99381.00
2018-08-18T17:35:02.759Z,99384.00
2018-08-18T17:37:32.629Z,99389.00
2018-08-18T17:40:02.453Z,99394.00
2018-08-18T17:42:32.211Z,99395.00
2018-08-18T17:45:02.045Z,99401.00
2018-08-18T17:47:34.187Z,99406.00
2018-08-18T17:50:04.548Z,99409.00
2018-08-18T17:52:34.668Z,99415.00
2018-08-18T17:55:16.566Z,99424.00
2018-08-18T17:57:46.663Z,99430.00
2018-08-18T18:00:18.852Z,99432.00
2018-08-18T18:02:54.689Z,99438.00
2018-08-18T18:05:26.092Z,99450.00
2018-08-18T18:07:59.097Z,99457.00
2018-08-18T18:10:35.662Z,99459.00
2018-08-18T18:13:14.667Z,99459.00
2018-08-18T18:15:45.731Z,99469.00
2018-08-18T18:18:17.859Z,99472.00
2018-08-18T18:20:48.925Z,99475.00
2018-08-18T18:23:19.434Z,99477.00
2018-08-18T18:25:49.332Z,99477.00
2018-08-18T18:28:19.193Z,99479.00
2018-08-18T18:30:52.640Z,99482.00
2018-08-18T18:33:22.565Z,99488.00
2018-08-18T18:35:52.554Z,99487.00
2018-08-18T18:38:22.462Z,99488.00
2018-08-18T18:40:52.442Z,99489.00
2018-08-18T18:43:22.265Z,99494.00
2018-08-18T18:45:53.278Z,99500.00
2018-08-18T18:48:23.108Z,99490.00
2018-08-18T18:50:53.090Z,99500.00
2018-08-18T18:53:23.126Z,99497.00
2018-08-18T18:55:54.065Z,99496.00
2018-08-18T18:58:24.121Z,99495.00
2018-08-18T19:00:58.979Z,99499.00
2018-08-18T19:03:29.371Z,99504.00
2018-08-18T19:05:59.248Z,99507.00
2018-08-18T19:08:29.205Z,99508.00
2018-08-18T19:10:59.093Z,99508.00
2018-08-18T19:13:29.021Z,99504.00
2018-08-18T19:15:59.025Z,99508.00
2018-08-18T19:18:28.804Z,99506.00
2018-08-18T19:20:58.798Z,99503.00
2018-08-18T19:23:29.092Z,99509.00
2018-08-18T19:25:59.017Z,99507.00
2018-08-18T19:28:28.886Z,99507.00
2018-08-18T19:30:58.807Z,99511.00
2018-08-18T19:33:28.628Z,99508.00
2018-08-18T19:35:58.428Z,99512.00
2018-08-18T19:38:28.313Z,99506.00
2018-08-18T19:40:58.114Z,99509.00
2018-08-18T19:43:28.639Z,99508.00
2018-08-18T19:45:58.503Z,99508.00
2018-08-18T19:48:28.833Z,99515.00
2018-08-18T19:51:04.217Z,99517.00
2018-08-18T19:53:35.560Z,99514.00
2018-08-18T19:56:08.781Z,99520.00
2018-08-18T19:58:38.545Z,99525.00
2018-08-18T20:01:08.395Z,99526.00
2018-08-18T20:03:38.357Z,99527.00
2018-08-18T20:06:16.248Z,99531.00
2018-08-18T20:08:46.926Z,99531.00
2018-08-18T20:11:16.961Z,99536.00
2018-08-18T20:13:46.781Z,99538.00
2018-08-18T20:16:16.662Z,99547.00
2018-08-18T20:18:46.657Z,99554.00
2018-08-18T20:21:16.581Z,99559.00
2018-08-18T20:23:46.342Z,99558.00
2018-08-18T20:26:16.096Z,99566.00
2018-08-18T20:28:46.111Z,99567.00
2018-08-18T20:31:15.933Z,99578.00
2018-08-18T20:33:46.894Z,99579.00
2018-08-18T20:36:16.857Z,99577.00
2018-08-18T20:38:46.985Z,99581.00
2018-08-18T20:41:16.831Z,99585.00
2018-08-18T20:43:48.362Z,99585.00
2018-08-18T20:46:18.155Z,99587.00
2018-08-18T20:48:47.973Z,99583.00
2018-08-18T20:51:21.876Z,99586.00
2018-08-18T20:53:51.755Z,99587.00
2018-08-18T20:56:21.492Z,99593.00
2018-08-18T20:58:51.297Z,99598.00
2018-08-18T21:01:21.131Z,99595.00
2018-08-18T21:03:51.446Z,99602.00
2018-08-18T21:06:21.269Z,99608.00
2018-08-18T21:08:51.804Z,99607.00
2018-08-18T21:11:21.945Z,99613.00
2018-08-18T21:13:52.548Z,99618.00
2018-08-18T21:16:24.280Z,99616.00
2018-08-18T21:18:54.735Z,99615.00
2018-08-18T21:21:29.841Z,99619.00
2018-08-18T21:24:12.093Z,99616.00
2018-08-18T21:26:54.689Z,99616.00
2018-08-18T21:29:26.096Z,99620.00
2018-08-18T21:31:56.797Z,99615.00
2018-08-18T21:34:27.567Z,99621.00
2018-08-18T21:36:58.271Z,99616.00
2018-08-18T21:39:29.358Z,99622.00
2018-08-18T21:42:01.221Z,99611.00
2018-08-18T21:44:32.783Z,99615.00
2018-08-18T21:47:03.605Z,99625.00
2018-08-18T21:49:34.669Z,99630.00
2018-08-18T21:52:05.581Z,99629.00
2018-08-18T21:54:36.742Z,99629.00
2018-08-18T21:57:08.034Z,99634.00
2018-08-18T21:59:52.010Z,99631.00
2018-08-18T22:02:34.463Z,99627.00
2018-08-18T22:05:05.523Z,99630.00
2018-08-18T22:07:40.837Z,99629.00
2018-08-18T22:10:12.197Z,99627.00
2018-08-18T22:12:42.944Z,99626.00
2018-08-18T22:15:19.397Z,99640.00
2018-08-18T22:17:51.280Z,99647.00
2018-08-18T22:20:23.647Z,99648.00
2018-08-18T22:22:54.397Z,99650.00
2018-08-18T22:25:24.969Z,99649.00
2018-08-18T22:27:55.281Z,99640.00
2018-08-18T22:30:26.876Z,99644.00
2018-08-18T22:32:58.180Z,99643.00
2018-08-18T22:35:29.345Z,99644.00
2018-08-18T22:37:59.693Z,99638.00
2018-08-18T22:40:30.694Z,99639.00
2018-08-18T22:43:02.300Z,99644.00
2018-08-18T22:45:34.325Z,99645.00
2018-08-18T22:48:06.085Z,99656.00
2018-08-18T22:50:37.229Z,99656.00
2018-08-18T22:53:08.830Z,99648.00
2018-08-18T22:55:40.154Z,99647.00
2018-08-18T22:58:11.466Z,99651.00
2018-08-18T23:00:45.141Z,99637.00
2018-08-18T23:03:17.344Z,99637.00
2018-08-18T23:05:48.641Z,99633.00
2018-08-18T23:08:21.132Z,99632.00
2018-08-18T23:10:52.705Z,99638.00
2018-08-18T23:13:23.556Z,99633.00
2018-08-18T23:15:54.349Z,99633.00
2018-08-18T23:18:24.660Z,99632.00
2018-08-18T23:20:55.828Z,99633.00
2018-08-18T23:23:26.574Z,99637.00
2018-08-18T23:25:58.118Z,99635.00
2018-08-18T23:28:29.228Z,99636.00
2018-08-18T23:30:59.970Z,99641.00
2018-08-18T23:33:30.904Z,99643.00
2018-08-18T23:36:02.064Z,99637.00
2018-08-18T23:38:33.136Z,99641.00
2018-08-18T23:41:09.360Z,99647.00
2018-08-18T23:43:41.239Z,99653.00
2018-08-18T23:46:12.493Z,99654.00
2018-08-18T23:48:43.357Z,99655.00
2018-08-18T23:51:14.930Z,99660.00
2018-08-18T23:53:45.527Z,99655.00
2018-08-18T23:56:16.685Z,99659.00
2018-08-18T23:58:47.490Z,99658.00
